Time;durP1;ratioP1;P1;durP2;ratioP2;P2;SDS_P1;SDS_P2;PMS_P1;PMS_P2;Temp;Humidity;BMP_temperature;BMP_pressure;BME280_temperature;BME280_humidity;BME280_pressure;Samples;Min_cycle;Max_cycle;Signal;HPM_P1;HPM_P2
2022/04/23 00:00:07;;;;;;;;;;;;;;;-155.54;100.00;57697.75;4980927;28;20326;-65
2022/04/23 00:02:32;;;;;;;;;;;;;;;-155.54;100.00;57697.75;4980430;28;19962;-64
2022/04/23 00:04:57;;;;;;;;;;;;;;;-155.54;100.00;57697.75;4979739;28;20304;-65
2022/04/23 00:07:23;;;;;;;;;;;;;;;-155.54;100.00;57697.75;4983832;28;19998;-65
2022/04/23 00:09:48;;;;;;;;;;;;;;;-155.54;100.00;57697.75;5000810;28;20008;-65
2022/04/23 00:12:13;;;;;;;;;;;;;;;-155.54;100.00;57697.75;4997635;28;20463;-64
2022/04/23 00:14:38;;;;;;;;;;;;;;;-155.54;100.00;57697.75;4985086;28;20391;-64
2022/04/23 00:17:04;;;;;;;;;;;;;;;-155.54;100.00;57697.75;4984392;28;20155;-64
2022/04/23 00:19:29;;;;;;;;;;;;;;;-155.54;100.00;57697.75;5002023;28;20012;-64
2022/04/23 00:21:54;;;;;;;;;;;;;;;-155.54;100.00;57697.75;4989850;28;20324;-64
2022/04/23 00:24:19;;;;;;;;;;;;;;;-155.54;100.00;57697.75;4984447;28;19991;-64
2022/04/23 00:26:45;;;;;;;;;;;;;;;-155.54;100.00;57697.75;4984749;28;19958;-65
2022/04/23 00:29:10;;;;;;;;;;;;;;;-155.54;100.00;57697.75;4984519;28;20073;-65
2022/04/23 00:31:36;;;;;;;;;;;;;;;-155.54;100.00;57697.75;4983702;28;20102;-65
2022/04/23 00:34:02;;;;;;;;;;;;;;;-155.54;100.00;57697.75;4984522;28;19969;-64
2022/04/23 00:36:28;;;;;;;;;;;;;;;-155.54;100.00;57697.75;4984389;28;19993;-65
2022/04/23 00:38:53;;;;;;;;;;;;;;;-155.54;100.00;57697.75;4991841;28;19994;-65
2022/04/23 00:44:05;;;;;;;;;;;;;;;-155.54;100.00;57697.75;4993821;28;19989;-64
2022/04/23 00:46:31;;;;;;;;;;;;;;;-155.54;100.00;57697.75;4984279;28;19966;-64
2022/04/23 00:48:58;;;;;;;;;;;;;;;-155.54;100.00;57697.75;4992682;28;19985;-65
2022/04/23 00:51:23;;;;;;;;;;;;;;;-155.54;100.00;57697.75;4989339;28;20340;-66
2022/04/23 00:53:48;;;;;;;;;;;;;;;-155.54;100.00;57697.75;4993478;28;20452;-65
2022/04/23 00:56:13;;;;;;;;;;;;;;;-155.54;100.00;57697.75;4993384;28;20024;-64
2022/04/23 00:58:39;;;;;;;;;;;;;;;-155.54;100.00;57697.75;4992418;28;19972;-65
2022/04/23 01:01:04;;;;;;;;;;;;;;;-155.54;100.00;57697.75;4983005;28;19982;-65
2022/04/23 01:03:30;;;;;;;;;;;;;;;-155.54;100.00;57697.75;4983036;28;20028;-65
2022/04/23 01:05:55;;;;;;;;;;;;;;;-155.54;100.00;57697.75;4983832;28;19986;-65
2022/04/23 01:08:20;;;;;;;;;;;;;;;-155.54;100.00;57697.75;4987229;28;20003;-64
2022/04/23 01:10:45;;;;;;;;;;;;;;;-155.54;100.00;57697.75;4993648;28;21375;-62
2022/04/23 01:13:11;;;;;;;;;;;;;;;-155.54;100.00;57697.75;4984261;28;20554;-63
2022/04/23 01:15:36;;;;;;;;;;;;;;;-155.54;100.00;57697.75;4985964;28;20049;-62
2022/04/23 01:18:03;;;;;;;;;;;;;;;-155.54;100.00;57697.75;4997378;28;20007;-63
2022/04/23 01:20:28;;;;;;;;;;;;;;;-155.54;100.00;57697.75;4993782;28;19997;-64
2022/04/23 01:22:53;;;;;;;;;;;;;;;-155.54;100.00;57697.75;4994420;28;19958;-64
2022/04/23 01:25:18;;;;;;;;;;;;;;;-155.54;100.00;57697.75;4995342;28;20021;-64
2022/04/23 01:27:45;;;;;;;;;;;;;;;-155.54;100.00;57697.75;4985276;28;20466;-65
2022/04/23 01:30:11;;;;;;;;;;;;;;;-155.54;100.00;57697.75;4984246;28;20514;-63
2022/04/23 01:32:36;;;;;;;;;;;;;;;-155.54;100.00;57697.75;4992505;28;19994;-65
2022/04/23 01:35:01;;;;;;;;;;;;;;;-155.54;100.00;57697.75;4988591;28;19989;-63
2022/04/23 01:37:27;;;;;;;;;;;;;;;-155.54;100.00;57697.75;4994382;28;20017;-64
2022/04/23 01:39:52;;;;;;;;;;;;;;;-155.54;100.00;57697.75;4983741;28;19991;-64
2022/04/23 01:42:18;;;;;;;;;;;;;;;-155.54;100.00;57697.75;4983762;28;20486;-64
2022/04/23 01:44:50;;;;;;;;;;;;;;;-155.54;100.00;57697.75;4983235;28;20049;-65
2022/04/23 01:47:15;;;;;;;;;;;;;;;-155.54;100.00;57697.75;4983790;28;20359;-65
2022/04/23 01:49:41;;;;;;;;;;;;;;;-155.54;100.00;57697.75;4984209;28;19981;-63
2022/04/23 01:52:06;;;;;;;;;;;;;;;-155.54;100.00;57697.75;4983413;28;19982;-65
2022/04/23 01:54:32;;;;;;;;;;;;;;;-155.54;100.00;57697.75;4983890;28;19970;-64
2022/04/23 01:56:57;;;;;;;;;;;;;;;-155.54;100.00;57697.75;4986100;28;20001;-64
2022/04/23 01:59:23;;;;;;;;;;;;;;;-155.54;100.00;57697.75;4993334;28;20245;-64
2022/04/23 02:01:49;;;;;;;;;;;;;;;-155.54;100.00;57697.75;4983833;28;19988;-64
2022/04/23 02:04:14;;;;;;;;;;;;;;;-155.54;100.00;57697.75;4983227;28;20366;-62
2022/04/23 02:06:39;;;;;;;;;;;;;;;-155.54;100.00;57697.75;4995964;28;19965;-65
2022/04/23 02:09:05;;;;;;;;;;;;;;;-155.54;100.00;57697.75;4983635;28;19999;-64
2022/04/23 02:11:31;;;;;;;;;;;;;;;-155.54;100.00;57697.75;4995791;28;19973;-65
2022/04/23 02:13:56;;;;;;;;;;;;;;;-155.54;100.00;57697.75;4983113;28;20001;-65
2022/04/23 02:16:21;;;;;;;;;;;;;;;-155.54;100.00;57697.75;4994289;28;20051;-65
2022/04/23 02:18:46;;;;;;;;;;;;;;;-155.54;100.00;57697.75;4989706;28;19962;-63
2022/04/23 02:21:12;;;;;;;;;;;;;;;-155.54;100.00;57697.75;5000330;28;19995;-63
2022/04/23 02:23:37;;;;;;;;;;;;;;;-155.54;100.00;57697.75;4984516;28;20386;-65
2022/04/23 02:26:04;;;;;;;;;;;;;;;-155.54;100.00;57697.75;4993266;28;20461;-65
2022/04/23 02:28:30;;;;;;;;;;;;;;;-155.54;100.00;57697.75;4985778;28;19990;-65
2022/04/23 02:30:56;;;;;;;;;;;;;;;-155.54;100.00;57697.75;4983339;28;20360;-65
2022/04/23 02:33:21;;;;;;;;;;;;;;;-155.54;100.00;57697.75;4985776;28;20447;-64
2022/04/23 02:35:47;;;;;;;;;;;;;;;-155.54;100.00;57697.75;4991378;28;20232;-64
2022/04/23 02:38:14;;;;;;;;;;;;;;;-155.54;100.00;57697.75;4986724;28;20443;-64
2022/04/23 02:40:40;;;;;;;;;;;;;;;-155.54;100.00;57697.75;4992651;28;20303;-64
2022/04/23 02:43:05;;;;;;;;;;;;;;;-155.54;100.00;57697.75;4984000;28;20757;-65
2022/04/23 02:45:30;;;;;;;;;;;;;;;-155.54;100.00;57697.75;4994784;28;19989;-63
2022/04/23 02:47:55;;;;;;;;;;;;;;;-155.54;100.00;57697.75;4982668;28;20037;-64
2022/04/23 02:50:27;;;;;;;;;;;;;;;-155.54;100.00;57697.75;4983199;28;19970;-65
2022/04/23 02:52:52;;;;;;;;;;;;;;;-155.54;100.00;57697.75;5010072;28;19989;-64
2022/04/23 02:55:17;;;;;;;;;;;;;;;-155.54;100.00;57697.75;5021228;28;20503;-65
2022/04/23 02:57:43;;;;;;;;;;;;;;;-155.54;100.00;57697.75;5022614;28;19966;-64
2022/04/23 03:00:10;;;;;;;;;;;;;;;-155.54;100.00;57697.75;5008802;28;20043;-64
2022/04/23 03:02:36;;;;;;;;;;;;;;;-155.54;100.00;57697.75;5021791;28;19973;-65
2022/04/23 03:05:02;;;;;;;;;;;;;;;-155.54;100.00;57697.75;5021978;28;20486;-64
2022/04/23 03:07:29;;;;;;;;;;;;;;;-155.54;100.00;57697.75;5011109;28;20065;-65
2022/04/23 03:09:55;;;;;;;;;;;;;;;-155.54;100.00;57697.75;5022052;28;19961;-64
2022/04/23 03:12:20;;;;;;;;;;;;;;;-155.54;100.00;57697.75;5021379;28;20048;-65
2022/04/23 03:14:45;;;;;;;;;;;;;;;-155.54;100.00;57697.75;5021861;28;20015;-65
2022/04/23 03:17:10;;;;;;;;;;;;;;;-155.54;100.00;57697.75;5012880;28;20029;-64
2022/04/23 03:19:36;;;;;;;;;;;;;;;-155.54;100.00;57697.75;5018522;28;20070;-65
2022/04/23 03:22:01;;;;;;;;;;;;;;;-155.54;100.00;57697.75;5005241;28;20013;-66
2022/04/23 03:24:26;;;;;;;;;;;;;;;-155.54;100.00;57697.75;5015232;28;19989;-64
2022/04/23 03:26:51;;;;;;;;;;;;;;;-155.54;100.00;57697.75;5016624;28;20482;-64
2022/04/23 03:29:18;;;;;;;;;;;;;;;-155.54;100.00;57697.75;5017187;28;20003;-65
2022/04/23 03:31:43;;;;;;;;;;;;;;;-155.54;100.00;57697.75;5024746;28;19997;-65
2022/04/23 03:34:08;;;;;;;;;;;;;;;-155.54;100.00;57697.75;5025255;28;20526;-64
2022/04/23 03:36:33;;;;;;;;;;;;;;;-155.54;100.00;57697.75;5012050;28;20058;-65
2022/04/23 03:38:59;;;;;;;;;;;;;;;-155.54;100.00;57697.75;5013281;28;19972;-66
2022/04/23 03:41:25;;;;;;;;;;;;;;;-155.54;100.00;57697.75;5011084;28;19996;-65
2022/04/23 03:43:50;;;;;;;;;;;;;;;-155.54;100.00;57697.75;5024958;28;20477;-65
2022/04/23 03:46:16;;;;;;;;;;;;;;;-155.54;100.00;57697.75;5011672;28;20000;-64
2022/04/23 03:48:41;;;;;;;;;;;;;;;-155.54;100.00;57697.75;5024751;28;20162;-66
2022/04/23 03:51:06;;;;;;;;;;;;;;;-155.54;100.00;57697.75;5020974;28;20521;-64
2022/04/23 03:53:32;;;;;;;;;;;;;;;-155.54;100.00;57697.75;5024931;28;20120;-64
2022/04/23 03:55:57;;;;;;;;;;;;;;;-155.54;100.00;57697.75;5012601;28;20028;-65
2022/04/23 03:58:22;;;;;;;;;;;;;;;-155.54;100.00;57697.75;5023180;28;20076;-65
2022/04/23 04:00:47;;;;;;;;;;;;;;;-155.54;100.00;57697.75;5019342;28;20494;-64
2022/04/23 04:03:12;;;;;;;;;;;;;;;-155.54;100.00;57697.75;5023935;28;20417;-64
2022/04/23 04:05:38;;;;;;;;;;;;;;;-155.54;100.00;57697.75;5023801;28;20324;-66
2022/04/23 04:08:03;;;;;;;;;;;;;;;-155.54;100.00;57697.75;5021590;28;19978;-66
2022/04/23 04:10:28;;;;;;;;;;;;;;;-155.54;100.00;57697.75;5023180;28;19973;-64
2022/04/23 04:12:54;;;;;;;;;;;;;;;-155.54;100.00;57697.75;5024224;28;20032;-64
2022/04/23 04:15:20;;;;;;;;;;;;;;;-155.54;100.00;57697.75;5010921;28;20095;-65
2022/04/23 04:17:47;;;;;;;;;;;;;;;-155.54;100.00;57697.75;5024482;28;20053;-64
2022/04/23 04:20:13;;;;;;;;;;;;;;;-155.54;100.00;57697.75;5011449;28;19996;-65
2022/04/23 04:22:38;;;;;;;;;;;;;;;-155.54;100.00;57697.75;5018561;28;20614;-65
2022/04/23 04:25:04;;;;;;;;;;;;;;;-155.54;100.00;57697.75;5011836;28;19993;-64
2022/04/23 04:27:29;;;;;;;;;;;;;;;-155.54;100.00;57697.75;5022019;28;19972;-64
2022/04/23 04:29:55;;;;;;;;;;;;;;;-155.54;100.00;57697.75;5024343;28;20686;-64
2022/04/23 04:32:20;;;;;;;;;;;;;;;-155.54;100.00;57697.75;5023605;28;20024;-64
2022/04/23 04:34:45;;;;;;;;;;;;;;;-155.54;100.00;57697.75;5013135;28;20013;-64
2022/04/23 04:37:11;;;;;;;;;;;;;;;-155.54;100.00;57697.75;5020735;28;20074;-64
2022/04/23 04:39:37;;;;;;;;;;;;;;;-155.54;100.00;57697.75;5013778;28;20663;-64
2022/04/23 04:42:02;;;;;;;;;;;;;;;-155.54;100.00;57697.75;5024059;28;19961;-65
2022/04/23 04:44:27;;;;;;;;;;;;;;;-155.54;100.00;57697.75;5023566;28;19981;-64
2022/04/23 04:46:53;;;;;;;;;;;;;;;-155.54;100.00;57697.75;5022104;28;20430;-65
2022/04/23 04:49:18;;;;;;;;;;;;;;;-155.54;100.00;57697.75;5023596;28;19985;-64
2022/04/23 04:51:43;;;;;;;;;;;;;;;-155.54;100.00;57697.75;5019210;28;19987;-65
2022/04/23 04:54:09;;;;;;;;;;;;;;;-155.54;100.00;57697.75;5021054;28;20422;-64
2022/04/23 04:56:34;;;;;;;;;;;;;;;-155.54;100.00;57697.75;5022242;28;20096;-66
2022/04/23 04:59:00;;;;;;;;;;;;;;;-155.54;100.00;57697.75;5020713;28;19975;-66
2022/04/23 05:01:26;;;;;;;;;;;;;;;-155.54;100.00;57697.75;5022545;28;20024;-65
2022/04/23 05:03:51;;;;;;;;;;;;;;;-155.54;100.00;57697.75;5011312;28;20033;-65
2022/04/23 05:06:17;;;;;;;;;;;;;;;-155.54;100.00;57697.75;5024025;28;19973;-65
2022/04/23 05:08:42;;;;;;;;;;;;;;;-155.54;100.00;57697.75;5015183;28;19980;-64
2022/04/23 05:11:09;;;;;;;;;;;;;;;-155.54;100.00;57697.75;5019536;28;19962;-64
2022/04/23 05:13:34;;;;;;;;;;;;;;;-155.54;100.00;57697.75;5023437;28;20017;-66
2022/04/23 05:16:00;;;;;;;;;;;;;;;-155.54;100.00;57697.75;5016748;28;20029;-65
2022/04/23 05:18:25;;;;;;;;;;;;;;;-155.54;100.00;57697.75;5023571;28;19963;-64
2022/04/23 05:20:51;;;;;;;;;;;;;;;-155.54;100.00;57697.75;5020536;28;20478;-63
2022/04/23 05:23:16;;;;;;;;;;;;;;;-155.54;100.00;57697.75;5012172;28;20006;-63
2022/04/23 05:25:41;;;;;;;;;;;;;;;-155.54;100.00;57697.75;5023313;28;20056;-62
2022/04/23 05:28:07;;;;;;;;;;;;;;;-155.54;100.00;57697.75;5010274;28;20087;-61
2022/04/23 05:30:32;;;;;;;;;;;;;;;-155.54;100.00;57697.75;5023186;28;19969;-63
2022/04/23 05:32:57;;;;;;;;;;;;;;;-155.54;100.00;57697.75;5019365;28;20088;-64
2022/04/23 05:35:23;;;;;;;;;;;;;;;-155.54;100.00;57697.75;5010732;28;20025;-63
2022/04/23 05:37:48;;;;;;;;;;;;;;;-155.54;100.00;57697.75;5019618;28;20533;-63
2022/04/23 05:40:13;;;;;;;;;;;;;;;-155.54;100.00;57697.75;5006161;28;20072;-64
2022/04/23 05:42:38;;;;;;;;;;;;;;;-155.54;100.00;57697.75;5023369;28;19996;-63
2022/04/23 05:45:04;;;;;;;;;;;;;;;-155.54;100.00;57697.75;4992769;28;20010;-63
2022/04/23 05:47:29;;;;;;;;;;;;;;;-155.54;100.00;57697.75;4994524;28;20000;-65
2022/04/23 05:49:54;;;;;;;;;;;;;;;-155.54;100.00;57697.75;4983560;28;20270;-63
2022/04/23 05:52:20;;;;;;;;;;;;;;;-155.54;100.00;57697.75;4988205;28;20016;-64
2022/04/23 05:54:45;;;;;;;;;;;;;;;-155.54;100.00;57697.75;5003452;28;20050;-63
2022/04/23 05:57:10;;;;;;;;;;;;;;;-155.54;100.00;57697.75;4997649;28;20048;-64
2022/04/23 05:59:35;;;;;;;;;;;;;;;-155.54;100.00;57697.75;4999801;28;19984;-65
2022/04/23 06:02:01;;;;;;;;;;;;;;;-155.54;100.00;57697.75;4991181;28;20018;-64
2022/04/23 06:04:27;;;;;;;;;;;;;;;-155.54;100.00;57697.75;4987657;28;20033;-65
2022/04/23 06:06:52;;;;;;;;;;;;;;;-155.54;100.00;57697.75;4994025;28;19961;-64
2022/04/23 06:09:17;;;;;;;;;;;;;;;-155.54;100.00;57697.75;4988845;28;20366;-69
2022/04/23 06:11:43;;;;;;;;;;;;;;;-155.54;100.00;57697.75;4991090;28;20028;-69
2022/04/23 06:14:08;;;;;;;;;;;;;;;-155.54;100.00;57697.75;4998977;28;20368;-68
2022/04/23 06:16:36;;;;;;;;;;;;;;;-155.54;100.00;57697.75;4992759;28;20023;-69
2022/04/23 06:19:01;;;;;;;;;;;;;;;-155.54;100.00;57697.75;4997723;28;19976;-69
2022/04/23 06:21:26;;;;;;;;;;;;;;;-155.54;100.00;57697.75;4998258;28;19989;-69
2022/04/23 06:23:51;;;;;;;;;;;;;;;-155.54;100.00;57697.75;5008112;28;19986;-69
2022/04/23 06:26:17;;;;;;;;;;;;;;;-155.54;100.00;57697.75;5034934;28;19966;-69
2022/04/23 06:28:42;;;;;;;;;;;;;;;-155.54;100.00;57697.75;5024423;28;20241;-69
2022/04/23 06:31:07;;;;;;;;;;;;;;;-155.54;100.00;57697.75;5013323;28;20105;-69
2022/04/23 06:33:33;;;;;;;;;;;;;;;-155.54;100.00;57697.75;4978918;28;20487;-69
2022/04/23 06:35:58;;;;;;;;;;;;;;;-155.54;100.00;57697.75;5011465;28;20114;-69
2022/04/23 06:38:24;;;;;;;;;;;;;;;-155.54;100.00;57697.75;5017811;28;19962;-69
2022/04/23 06:40:49;;;;;;;;;;;;;;;-155.54;100.00;57697.75;5037238;28;20085;-70
2022/04/23 06:43:14;;;;;;;;;;;;;;;-155.54;100.00;57697.75;5019259;28;19963;-69
2022/04/23 06:45:40;;;;;;;;;;;;;;;-155.54;100.00;57697.75;4978598;28;19990;-69
2022/04/23 06:48:05;;;;;;;;;;;;;;;-155.54;100.00;57697.75;4991244;28;20612;-69
2022/04/23 06:50:34;;;;;;;;;;;;;;;-155.54;100.00;57697.75;5016496;28;20621;-63
2022/04/23 06:53:00;;;;;;;;;;;;;;;-155.54;100.00;57697.75;5016279;28;20468;-63
2022/04/23 06:55:25;;;;;;;;;;;;;;;-155.54;100.00;57697.75;5016539;28;19977;-63
2022/04/23 06:57:51;;;;;;;;;;;;;;;-155.54;100.00;57697.75;5017523;28;20466;-63
2022/04/23 07:00:16;;;;;;;;;;;;;;;-155.54;100.00;57697.75;5008751;28;20475;-63
2022/04/23 07:02:41;;;;;;;;;;;;;;;-155.54;100.00;57697.75;5001438;28;19988;-63
2022/04/23 07:05:07;;;;;;;;;;;;;;;-155.54;100.00;57697.75;5000139;28;20007;-63
2022/04/23 07:07:33;;;;;;;;;;;;;;;-155.54;100.00;57697.75;5000064;28;19954;-63
2022/04/23 07:09:59;;;;;;;;;;;;;;;-155.54;100.00;57697.75;4999535;28;20068;-62
2022/04/23 07:12:24;;;;;;;;;;;;;;;-155.54;100.00;57697.75;5002397;28;20069;-63
2022/04/23 07:14:49;;;;;;;;;;;;;;;-155.54;100.00;57697.75;5013804;28;19958;-63
2022/04/23 07:17:15;;;;;;;;;;;;;;;-155.54;100.00;57697.75;5000752;28;19991;-63
2022/04/23 07:19:40;;;;;;;;;;;;;;;-155.54;100.00;57697.75;4989040;28;20164;-63
2022/04/23 07:22:06;;;;;;;;;;;;;;;-155.54;100.00;57697.75;4986009;28;19966;-63
2022/04/23 07:24:31;;;;;;;;;;;;;;;-155.54;100.00;57697.75;5009989;28;20002;-63
2022/04/23 07:26:59;;;;;;;;;;;;;;;-155.54;100.00;57697.75;5021196;28;20002;-63
2022/04/23 07:29:24;;;;;;;;;;;;;;;-155.54;100.00;57697.75;5022992;28;20039;-63
2022/04/23 07:31:49;;;;;;;;;;;;;;;-155.54;100.00;57697.75;5040735;28;20474;-63
2022/04/23 07:39:44;;;;;;;;;;;;;;;-155.54;100.00;57697.75;4990552;28;19983;-63
2022/04/23 07:42:09;;;;;;;;;;;;;;;-155.54;100.00;57697.75;5016733;28;20345;-64
2022/04/23 07:44:34;;;;;;;;;;;;;;;-155.54;100.00;57697.75;5005133;28;20056;-63
2022/04/23 07:47:00;;;;;;;;;;;;;;;-155.54;100.00;57697.75;4999850;28;19950;-63
2022/04/23 07:49:25;;;;;;;;;;;;;;;-155.54;100.00;57697.75;5000497;28;20027;-64
2022/04/23 07:51:50;;;;;;;;;;;;;;;-155.54;100.00;57697.75;4999534;28;20288;-62
2022/04/23 07:54:16;;;;;;;;;;;;;;;-155.54;100.00;57697.75;5000495;28;19952;-63
2022/04/23 07:56:41;;;;;;;;;;;;;;;-155.54;100.00;57697.75;5000583;28;20480;-63
2022/04/23 07:59:07;;;;;;;;;;;;;;;-155.54;100.00;57697.75;5011350;28;20075;-63
2022/04/23 08:01:32;;;;;;;;;;;;;;;-155.54;100.00;57697.75;5016093;28;20031;-63
2022/04/23 08:03:59;;;;;;;;;;;;;;;-155.54;100.00;57697.75;5012343;28;19972;-63
2022/04/23 08:06:24;;;;;;;;;;;;;;;-155.54;100.00;57697.75;5011981;28;20151;-63
2022/04/23 08:08:49;;;;;;;;;;;;;;;-155.54;100.00;57697.75;5000386;28;19975;-63
2022/04/23 08:11:15;;;;;;;;;;;;;;;-155.54;100.00;57697.75;4997813;28;19948;-64
2022/04/23 08:13:40;;;;;;;;;;;;;;;-155.54;100.00;57697.75;4998937;28;19984;-63
2022/04/23 08:16:05;;;;;;;;;;;;;;;-155.54;100.00;57697.75;5002121;28;19969;-63
2022/04/23 08:18:30;;;;;;;;;;;;;;;-155.54;100.00;57697.75;4998541;28;20227;-63
2022/04/23 08:20:56;;;;;;;;;;;;;;;-155.54;100.00;57697.75;4998249;28;20018;-64
2022/04/23 08:23:21;;;;;;;;;;;;;;;-155.54;100.00;57697.75;4998890;28;19951;-63
2022/04/23 08:25:47;;;;;;;;;;;;;;;-155.54;100.00;57697.75;4999303;28;20584;-64
2022/04/23 08:30:57;;;;;;;;;;;;;;;-155.54;100.00;57697.75;4995688;28;20006;-64
2022/04/23 08:33:22;;;;;;;;;;;;;;;-155.54;100.00;57697.75;4998745;28;20036;-64
2022/04/23 08:35:48;;;;;;;;;;;;;;;-155.54;100.00;57697.75;4998433;28;19996;-64
2022/04/23 08:38:13;;;;;;;;;;;;;;;-155.54;100.00;57697.75;4998633;28;20046;-64
2022/04/23 08:40:43;;;;;;;;;;;;;;;-155.54;100.00;57697.75;4998719;28;19990;-64
2022/04/23 08:43:08;;;;;;;;;;;;;;;-155.54;100.00;57697.75;4995177;28;19932;-63
2022/04/23 08:45:37;;;;;;;;;;;;;;;-155.54;100.00;57697.75;4995357;28;19953;-63
2022/04/23 08:48:06;;;;;;;;;;;;;;;-155.54;100.00;57697.75;4997926;28;20509;-64
2022/04/23 08:50:31;;;;;;;;;;;;;;;-155.54;100.00;57697.75;4998816;28;19934;-64
2022/04/23 08:52:57;;;;;;;;;;;;;;;-155.54;100.00;57697.75;4993916;28;20008;-64
2022/04/23 08:55:22;;;;;;;;;;;;;;;-155.54;100.00;57697.75;4998395;28;20048;-64
2022/04/23 08:57:48;;;;;;;;;;;;;;;-155.54;100.00;57697.75;4997970;28;20020;-63
2022/04/23 09:00:14;;;;;;;;;;;;;;;-155.54;100.00;57697.75;4998202;28;20001;-64
2022/04/23 09:02:41;;;;;;;;;;;;;;;-155.54;100.00;57697.75;4998098;28;19925;-63
2022/04/23 09:05:07;;;;;;;;;;;;;;;-155.54;100.00;57697.75;4998021;28;19957;-63
2022/04/23 09:07:32;;;;;;;;;;;;;;;-155.54;100.00;57697.75;4999964;28;20006;-63
2022/04/23 09:09:57;;;;;;;;;;;;;;;-155.54;100.00;57697.75;5001172;28;20381;-64
2022/04/23 09:12:27;;;;;;;;;;;;;;;-155.54;100.00;57697.75;4993267;28;20071;-63
2022/04/23 09:14:53;;;;;;;;;;;;;;;-155.54;100.00;57697.75;4998426;28;19940;-63
2022/04/23 09:25:40;;;;;;;;;;;;;;;-155.54;100.00;57697.75;4998064;28;19956;-63
2022/04/23 09:28:14;;;;;;;;;;;;;;;-155.54;100.00;57697.75;4997966;28;20486;-64
2022/04/23 09:30:40;;;;;;;;;;;;;;;-155.54;100.00;57697.75;4998223;28;20268;-63
2022/04/23 09:33:05;;;;;;;;;;;;;;;-155.54;100.00;57697.75;4997939;28;19955;-64
2022/04/23 09:35:30;;;;;;;;;;;;;;;-155.54;100.00;57697.75;5003648;28;19975;-64
2022/04/23 09:38:14;;;;;;;;;;;;;;;-155.54;100.00;57697.75;5008269;28;19941;-64
2022/04/23 09:40:39;;;;;;;;;;;;;;;-155.54;100.00;57697.75;4991738;28;19998;-63
2022/04/23 09:43:08;;;;;;;;;;;;;;;-155.54;100.00;57697.75;4979198;28;19998;-64
2022/04/23 09:45:36;;;;;;;;;;;;;;;-155.54;100.00;57697.75;5016364;28;19953;-63
2022/04/23 09:48:01;;;;;;;;;;;;;;;-155.54;100.00;57697.75;5016789;28;19960;-64
2022/04/23 09:50:26;;;;;;;;;;;;;;;-155.54;100.00;57697.75;5014159;28;19931;-64
2022/04/23 09:52:53;;;;;;;;;;;;;;;-155.54;100.00;57697.75;5015807;28;20182;-64
2022/04/23 09:55:19;;;;;;;;;;;;;;;-155.54;100.00;57697.75;5016695;28;19937;-63
2022/04/23 09:57:45;;;;;;;;;;;;;;;-155.54;100.00;57697.75;5014652;28;19930;-64
2022/04/23 10:00:11;;;;;;;;;;;;;;;-155.54;100.00;57697.75;5015478;28;19960;-64
2022/04/23 10:02:36;;;;;;;;;;;;;;;-155.54;100.00;57697.75;5017301;28;19934;-64
2022/04/23 10:05:01;;;;;;;;;;;;;;;-155.54;100.00;57697.75;5014895;28;19958;-63
2022/04/23 10:07:27;;;;;;;;;;;;;;;-155.54;100.00;57697.75;5017143;28;19928;-64
2022/04/23 10:09:52;;;;;;;;;;;;;;;-155.54;100.00;57697.75;5016102;28;20109;-64
2022/04/23 10:12:18;;;;;;;;;;;;;;;-155.54;100.00;57697.75;5016962;28;19984;-64
2022/04/23 10:14:47;;;;;;;;;;;;;;;-155.54;100.00;57697.75;5015556;28;19924;-64
2022/04/23 10:17:15;;;;;;;;;;;;;;;-155.54;100.00;57697.75;5015987;28;20712;-64
2022/04/23 10:19:41;;;;;;;;;;;;;;;-155.54;100.00;57697.75;5015065;28;19952;-64
2022/04/23 10:22:14;;;;;;;;;;;;;;;-155.54;100.00;57697.75;5016633;28;19938;-64
2022/04/23 10:24:58;;;;;;;;;;;;;;;-155.54;100.00;57697.75;5000882;28;19952;-64
2022/04/23 10:27:25;;;;;;;;;;;;;;;-155.54;100.00;57697.75;5000164;28;19942;-64
2022/04/23 10:29:54;;;;;;;;;;;;;;;-155.54;100.00;57697.75;5014650;28;19987;-64
2022/04/23 10:32:20;;;;;;;;;;;;;;;-155.54;100.00;57697.75;5013023;28;19955;-64
2022/04/23 10:34:46;;;;;;;;;;;;;;;-155.54;100.00;57697.75;5020344;28;19935;-64
2022/04/23 10:37:21;;;;;;;;;;;;;;;-155.54;100.00;57697.75;5017806;28;19953;-64
2022/04/23 10:39:52;;;;;;;;;;;;;;;-155.54;100.00;57697.75;5009937;28;19973;-64
2022/04/23 10:42:21;;;;;;;;;;;;;;;-155.54;100.00;57697.75;5020115;28;19959;-64
2022/04/23 10:44:47;;;;;;;;;;;;;;;-155.54;100.00;57697.75;5020071;28;20046;-63
2022/04/23 10:47:13;;;;;;;;;;;;;;;-155.54;100.00;57697.75;5019377;28;20349;-64
2022/04/23 10:49:38;;;;;;;;;;;;;;;-155.54;100.00;57697.75;5021537;28;19936;-64
2022/04/23 10:52:03;;;;;;;;;;;;;;;-155.54;100.00;57697.75;5012081;28;19975;-64
2022/04/23 10:54:41;;;;;;;;;;;;;;;-155.54;100.00;57697.75;5012672;28;20301;-64
2022/04/23 10:57:07;;;;;;;;;;;;;;;-155.54;100.00;57697.75;5005291;28;20326;-64
2022/04/23 10:59:34;;;;;;;;;;;;;;;-155.54;100.00;57697.75;5011266;28;20259;-64
2022/04/23 11:02:02;;;;;;;;;;;;;;;-155.54;100.00;57697.75;5010229;28;19985;-64
2022/04/23 11:04:27;;;;;;;;;;;;;;;-155.54;100.00;57697.75;5007541;28;19954;-64
2022/04/23 11:12:33;;;;;;;;;;;;;;;-155.54;100.00;57697.75;5017002;28;19950;-64
2022/04/23 11:14:58;;;;;;;;;;;;;;;-155.54;100.00;57697.75;5018311;28;20587;-65
2022/04/23 11:17:24;;;;;;;;;;;;;;;-155.54;100.00;57697.75;5010646;28;19965;-64
2022/04/23 11:19:52;;;;;;;;;;;;;;;-155.54;100.00;57697.75;5020406;28;20371;-65
2022/04/23 11:22:19;;;;;;;;;;;;;;;-155.54;100.00;57697.75;5016637;28;19957;-64
2022/04/23 11:24:45;;;;;;;;;;;;;;;-155.54;100.00;57697.75;4999556;28;19953;-65
2022/04/23 11:27:10;;;;;;;;;;;;;;;-155.54;100.00;57697.75;4999839;28;20389;-64
2022/04/23 11:29:37;;;;;;;;;;;;;;;-155.54;100.00;57697.75;5018344;28;20236;-64
2022/04/23 11:32:02;;;;;;;;;;;;;;;-155.54;100.00;57697.75;5007646;28;20213;-63
2022/04/23 11:34:28;;;;;;;;;;;;;;;-155.54;100.00;57697.75;4991855;28;20381;-64
2022/04/23 11:36:53;;;;;;;;;;;;;;;-155.54;100.00;57697.75;4991354;28;19995;-65
2022/04/23 11:39:18;;;;;;;;;;;;;;;-155.54;100.00;57697.75;4995881;28;20310;-64
2022/04/23 11:41:50;;;;;;;;;;;;;;;-155.54;100.00;57697.75;5004272;28;19959;-65
2022/04/23 11:44:45;;;;;;;;;;;;;;;-155.54;100.00;57697.75;5003205;28;19959;-65
2022/04/23 11:47:10;;;;;;;;;;;;;;;-155.54;100.00;57697.75;5000862;28;19936;-71
2022/04/23 11:49:35;;;;;;;;;;;;;;;-155.54;100.00;57697.75;4997564;28;20014;-71
2022/04/23 11:52:01;;;;;;;;;;;;;;;-155.54;100.00;57697.75;5003534;28;20299;-71
2022/04/23 11:54:45;;;;;;;;;;;;;;;-155.54;100.00;57697.75;5005082;28;19944;-71
2022/04/23 11:57:14;;;;;;;;;;;;;;;-155.54;100.00;57697.75;5029748;28;20252;-71
2022/04/23 11:59:46;;;;;;;;;;;;;;;-155.54;100.00;57697.75;5039394;28;19923;-71
2022/04/23 12:02:21;;;;;;;;;;;;;;;-155.54;100.00;57697.75;5045050;28;19908;-71
2022/04/23 12:04:48;;;;;;;;;;;;;;;-155.54;100.00;57697.75;5044524;28;20487;-71
2022/04/23 12:07:13;;;;;;;;;;;;;;;-155.54;100.00;57697.75;5045119;28;19917;-71
2022/04/23 12:09:44;;;;;;;;;;;;;;;-155.54;100.00;57697.75;5017549;28;19948;-71
2022/04/23 12:12:09;;;;;;;;;;;;;;;-155.54;100.00;57697.75;5044528;28;20412;-71
2022/04/23 12:14:44;;;;;;;;;;;;;;;-155.54;100.00;57697.75;5044490;28;20584;-71
2022/04/23 12:17:09;;;;;;;;;;;;;;;-155.54;100.00;57697.75;5044639;28;19936;-71
2022/04/23 12:19:34;;;;;;;;;;;;;;;-155.54;100.00;57697.75;5031006;28;19960;-71
2022/04/23 12:22:00;;;;;;;;;;;;;;;-155.54;100.00;57697.75;5044703;28;19966;-71
2022/04/23 12:24:34;;;;;;;;;;;;;;;-155.54;100.00;57697.75;5044046;28;20512;-71
2022/04/23 12:27:03;;;;;;;;;;;;;;;-155.54;100.00;57697.75;5044346;28;19917;-71
2022/04/23 12:40:46;;;;;;;;;;;;;;;-155.54;100.00;57697.75;5026679;28;20428;-71
2022/04/23 12:43:20;;;;;;;;;;;;;;;-155.54;100.00;57697.75;5043207;28;19928;-71
2022/04/23 12:45:49;;;;;;;;;;;;;;;-155.54;100.00;57697.75;4992426;28;20380;-71
2022/04/23 12:48:14;;;;;;;;;;;;;;;-155.54;100.00;57697.75;5000857;28;20216;-71